createdAt,value
2022-11-22T00:00:03.515Z,1000.69
2022-11-22T00:09:40.295Z,1000.6
2022-11-22T00:19:16.359Z,1000.58
2022-11-22T00:28:52.724Z,1000.43
2022-11-22T00:48:05.278Z,1000.53
2022-11-22T00:57:42.058Z,1000.33
2022-11-22T01:07:19.194Z,1000.48
2022-11-22T01:16:55.710Z,1000.39
2022-11-22T01:26:32.145Z,1000.19
2022-11-22T01:36:08.262Z,1000.14
2022-11-22T01:45:44.661Z,1000
2022-11-22T01:55:21.284Z,999.79
2022-11-22T02:04:57.782Z,999.71
2022-11-22T02:14:34.179Z,999.48
2022-11-22T02:24:11.016Z,999.57
2022-11-22T02:33:47.730Z,999.49
2022-11-22T02:43:24.387Z,999.42
2022-11-22T02:53:00.905Z,999.41
2022-11-22T03:02:37.682Z,999.52
2022-11-22T03:21:51.615Z,999.32
2022-11-22T03:31:28.376Z,999.3
2022-11-22T03:41:04.891Z,999.32
2022-11-22T03:50:41.361Z,999.27
2022-11-22T04:00:17.856Z,999.43
2022-11-22T04:09:54.751Z,999.39
2022-11-22T04:19:31.754Z,999.35
2022-11-22T04:29:09.951Z,999.51
2022-11-22T04:38:44.962Z,999.38
2022-11-22T04:48:21.843Z,999.38
2022-11-22T04:58:00.131Z,999.22
2022-11-22T05:07:35.073Z,999.22
2022-11-22T05:17:13.301Z,999.43
2022-11-22T05:26:47.985Z,999.45
2022-11-22T05:36:24.586Z,999.4
2022-11-22T05:46:01.753Z,999.39
2022-11-22T05:55:38.450Z,999.58
2022-11-22T06:05:15.336Z,999.56
2022-11-22T06:14:52.199Z,999.64
2022-11-22T06:24:29.130Z,999.6
2022-11-22T06:34:06.144Z,999.61
2022-11-22T06:53:39.606Z,999.7
2022-11-22T07:02:56.953Z,999.77
2022-11-22T07:12:34.211Z,999.78
2022-11-22T07:22:11.030Z,999.98
2022-11-22T07:31:48.088Z,1000.15
2022-11-22T07:41:25.160Z,1000.33
2022-11-22T07:51:01.364Z,1000.58
2022-11-22T08:00:38.990Z,1000.42
2022-11-22T08:10:16.524Z,1000.38
2022-11-22T08:19:54.277Z,1000.52
2022-11-22T08:39:08.844Z,1000.69
2022-11-22T08:48:45.929Z,1000.96
2022-11-22T08:58:22.655Z,1001.15
2022-11-22T09:08:23.334Z,1001.27
2022-11-22T09:17:37.160Z,1001.39
2022-11-22T09:27:14.728Z,1001.34
2022-11-22T09:36:52.330Z,1001.26
2022-11-22T09:46:30.044Z,1001.17
2022-11-22T09:56:07.740Z,1001.18
2022-11-22T10:05:44.672Z,1001.31
2022-11-22T10:15:21.799Z,1001.25
2022-11-22T10:24:59.124Z,1001.09
2022-11-22T10:34:37.445Z,1001.18
2022-11-22T10:44:15.439Z,1001.25
2022-11-22T10:53:56.521Z,1001.23
2022-11-22T11:03:33.410Z,1001.18
2022-11-22T11:13:11.109Z,1001
2022-11-22T11:23:16.813Z,1000.92
2022-11-22T11:32:25.195Z,1001.01
2022-11-22T11:51:41.036Z,1000.94
2022-11-22T12:01:18.300Z,1000.9
2022-11-22T12:10:55.304Z,1000.78
2022-11-22T12:20:33.341Z,1000.75
2022-11-22T12:30:10.904Z,1000.84
2022-11-22T12:39:47.697Z,1000.98
2022-11-22T12:49:25.093Z,1000.97
2022-11-22T12:59:04.897Z,1000.92
2022-11-22T13:08:53.931Z,1000.75
2022-11-22T13:18:20.865Z,1000.88
2022-11-22T13:37:36.063Z,1000.74
2022-11-22T13:47:13.428Z,1000.76
2022-11-22T13:56:49.769Z,1000.71
2022-11-22T14:06:24.838Z,1000.78
2022-11-22T14:15:59.701Z,1000.86
2022-11-22T14:35:09.539Z,1001.01
2022-11-22T14:44:45.828Z,1001.09
2022-11-22T14:54:21.537Z,1001.17
2022-11-22T15:09:07.701Z,1001.36
2022-11-22T15:13:33.267Z,1001.49
2022-11-22T16:11:10.910Z,1002.06
2022-11-22T16:20:47.092Z,1002.24
2022-11-22T16:30:23.850Z,1002.45
2022-11-22T16:49:35.122Z,1002.66
2022-11-22T16:59:12.673Z,1002.8
2022-11-22T17:08:47.484Z,1002.85
2022-11-22T17:18:24.081Z,1002.98
2022-11-22T17:28:00.100Z,1003.04
2022-11-22T17:37:36.368Z,1003.13
2022-11-22T17:47:12.781Z,1003.27
2022-11-22T17:56:49.641Z,1003.3
2022-11-22T18:06:26.689Z,1003.34
2022-11-22T18:16:03.988Z,1003.38
2022-11-22T18:25:39.898Z,1003.37
2022-11-22T18:35:16.667Z,1003.41
2022-11-22T18:44:54.479Z,1003.3
2022-11-22T18:54:30.583Z,1003.26
2022-11-22T19:04:07.564Z,1003.48
2022-11-22T19:13:42.877Z,1003.21
2022-11-22T19:23:20.407Z,1003.24
2022-11-22T19:32:57.279Z,1003.48
2022-11-22T19:42:32.739Z,1003.46
2022-11-22T19:52:08.789Z,1003.54
2022-11-22T20:01:45.150Z,1003.47
2022-11-22T20:11:23.149Z,1003.31
2022-11-22T20:30:36.188Z,1003.52
2022-11-22T20:40:11.127Z,1003.45
2022-11-22T20:49:48.179Z,1003.59
2022-11-22T20:59:26.098Z,1003.49
2022-11-22T21:09:04.373Z,1003.4
2022-11-22T21:28:15.893Z,1003.6
2022-11-22T21:47:29.628Z,1003.9
2022-11-22T22:06:46.049Z,1003.8
2022-11-22T22:16:19.311Z,1003.87
2022-11-22T22:25:55.815Z,1004.05
2022-11-22T22:35:32.327Z,1004.08
2022-11-22T22:45:09.408Z,1004.13
2022-11-22T22:54:46.130Z,1004.04
2022-11-22T23:04:23.524Z,1004.2
2022-11-22T23:14:00.250Z,1004.03
2022-11-22T23:23:38.215Z,1004.02
2022-11-22T23:33:16.434Z,1004.07
2022-11-22T23:42:53.067Z,1004.09
